createdAt,value
2022-12-19T00:00:49.063Z,100906.40
2022-12-19T00:03:27.088Z,100903.20
2022-12-19T00:05:54.819Z,100897.40
2022-12-19T00:08:22.514Z,100892.80
2022-12-19T00:11:00.046Z,100890.80
2022-12-19T00:13:31.230Z,100881.40
2022-12-19T00:16:19.060Z,100882.00
2022-12-19T00:18:49.383Z,100878.20
2022-12-19T00:21:21.418Z,100878.20
2022-12-19T00:23:50.582Z,100879.00
2022-12-19T00:26:23.750Z,100879.60
2022-12-19T00:28:54.921Z,100878.40
2022-12-19T00:31:28.510Z,100880.80
2022-12-19T00:33:58.094Z,100882.40
2022-12-19T00:36:30.047Z,100880.60
2022-12-19T00:39:00.646Z,100875.80
2022-12-19T00:41:34.852Z,100877.40
2022-12-19T00:44:10.396Z,100884.80
2022-12-19T00:46:38.350Z,100876.20
2022-12-19T00:49:07.406Z,100871.80
2022-12-19T00:51:37.494Z,100876.80
2022-12-19T00:54:18.392Z,100886.20
2022-12-19T00:56:46.634Z,100870.80
2022-12-19T00:59:14.339Z,100868.40
2022-12-19T01:01:44.361Z,100867.00
2022-12-19T01:04:31.286Z,100861.60
2022-12-19T01:07:02.381Z,100859.40
2022-12-19T01:09:32.939Z,100849.60
2022-12-19T01:12:20.495Z,100839.20
2022-12-19T01:14:54.705Z,100840.80
2022-12-19T01:17:26.442Z,100838.80
2022-12-19T01:19:54.096Z,100835.00
2022-12-19T01:22:21.822Z,100832.20
2022-12-19T01:24:49.493Z,100824.40
2022-12-19T01:27:17.185Z,100823.00
2022-12-19T01:29:52.554Z,100819.40
2022-12-19T01:32:21.987Z,100814.00
2022-12-19T01:34:49.746Z,100807.20
2022-12-19T01:37:18.112Z,100806.00
2022-12-19T01:39:46.506Z,100807.60
2022-12-19T01:42:23.345Z,100812.80
2022-12-19T01:45:13.660Z,100808.20
2022-12-19T01:48:33.167Z,100803.20
2022-12-19T01:51:06.910Z,100799.00
2022-12-19T01:53:49.370Z,100797.60
2022-12-19T01:56:31.811Z,100798.20
2022-12-19T01:59:09.513Z,100803.80
2022-12-19T02:01:50.766Z,100797.20
2022-12-19T02:04:20.747Z,100801.40
2022-12-19T02:06:50.392Z,100792.00
2022-12-19T02:09:19.393Z,100801.00
2022-12-19T02:11:47.165Z,100793.00
2022-12-19T02:14:14.926Z,100796.60
2022-12-19T02:17:10.812Z,100793.80
2022-12-19T02:20:12.154Z,100786.80
2022-12-19T02:23:01.488Z,100783.20
2022-12-19T02:26:19.176Z,100780.40
2022-12-19T02:29:11.215Z,100781.20
2022-12-19T02:31:54.018Z,100783.80
2022-12-19T02:35:31.989Z,100779.80
2022-12-19T02:38:20.126Z,100771.60
2022-12-19T02:41:13.517Z,100763.60
2022-12-19T02:43:49.602Z,100765.00
2022-12-19T02:46:22.337Z,100768.00
2022-12-19T02:48:52.302Z,100769.40
2022-12-19T02:51:19.967Z,100764.20
2022-12-19T02:53:48.432Z,100763.00
2022-12-19T02:56:28.995Z,100758.20
2022-12-19T02:59:30.469Z,100753.00
2022-12-19T03:02:25.766Z,100751.00
2022-12-19T03:05:04.780Z,100745.60
2022-12-19T03:08:09.627Z,100749.20
2022-12-19T03:10:41.681Z,100751.20
2022-12-19T03:13:17.489Z,100743.60
2022-12-19T03:15:46.038Z,100748.20
2022-12-19T03:18:14.039Z,100756.40
2022-12-19T03:21:13.014Z,100759.60
2022-12-19T03:23:41.920Z,100757.80
2022-12-19T03:26:27.856Z,100749.80
2022-12-19T03:29:05.325Z,100749.20
2022-12-19T03:31:36.872Z,100760.20
2022-12-19T03:34:20.132Z,100753.20
2022-12-19T03:36:56.423Z,100745.00
2022-12-19T03:39:26.903Z,100738.80
2022-12-19T03:42:16.428Z,100729.60
2022-12-19T03:44:44.640Z,100727.40
2022-12-19T03:47:29.018Z,100723.00
2022-12-19T03:49:57.173Z,100721.40
2022-12-19T03:52:33.360Z,100728.20
2022-12-19T03:55:24.436Z,100733.40
2022-12-19T03:58:10.585Z,100730.80
2022-12-19T04:00:47.451Z,100730.00
2022-12-19T04:03:19.570Z,100717.20
2022-12-19T04:05:50.538Z,100712.60
2022-12-19T04:08:18.904Z,100705.00
2022-12-19T04:11:04.051Z,100701.40
2022-12-19T04:14:00.408Z,100697.60
2022-12-19T04:16:54.017Z,100693.60
2022-12-19T04:19:37.492Z,100701.40
2022-12-19T04:22:17.847Z,100689.80
2022-12-19T04:24:47.942Z,100688.80
2022-12-19T04:27:16.782Z,100690.00
2022-12-19T04:29:45.319Z,100696.60
2022-12-19T04:32:14.561Z,100698.80
2022-12-19T04:34:43.152Z,100698.40
2022-12-19T04:37:12.950Z,100695.20
2022-12-19T04:39:41.192Z,100693.00
2022-12-19T04:42:09.002Z,100688.80
2022-12-19T04:44:36.610Z,100690.40
2022-12-19T04:47:04.474Z,100688.00
2022-12-19T04:49:32.126Z,100692.60
2022-12-19T04:51:59.857Z,100680.60
2022-12-19T04:54:27.730Z,100673.20
2022-12-19T04:56:55.640Z,100678.80
2022-12-19T04:59:24.104Z,100667.00
2022-12-19T05:01:51.890Z,100667.40
2022-12-19T05:04:19.645Z,100668.20
2022-12-19T05:06:47.325Z,100677.60
2022-12-19T05:09:15.129Z,100678.80
2022-12-19T05:11:42.867Z,100675.40
2022-12-19T05:14:10.748Z,100680.60
2022-12-19T05:16:38.426Z,100682.00
2022-12-19T05:19:06.080Z,100682.40
2022-12-19T05:21:33.723Z,100682.00
2022-12-19T05:24:01.856Z,100682.80
2022-12-19T05:26:29.564Z,100692.20
2022-12-19T05:28:57.197Z,100685.60
2022-12-19T05:31:24.902Z,100677.20
2022-12-19T05:33:52.707Z,100664.40
2022-12-19T05:36:20.469Z,100670.40
2022-12-19T05:38:48.421Z,100670.20
2022-12-19T05:41:19.702Z,100664.00
2022-12-19T05:43:53.442Z,100664.20
2022-12-19T05:46:22.274Z,100665.40
2022-12-19T05:48:50.711Z,100662.00
2022-12-19T05:51:19.138Z,100663.00
2022-12-19T05:53:47.082Z,100656.80
2022-12-19T05:56:19.762Z,100656.60
2022-12-19T05:58:48.006Z,100653.00
2022-12-19T06:01:26.119Z,100656.00
2022-12-19T06:03:55.269Z,100665.20
2022-12-19T06:06:26.589Z,100677.40
2022-12-19T06:08:59.677Z,100671.80
2022-12-19T06:11:27.420Z,100666.60
2022-12-19T06:13:55.082Z,100660.00
2022-12-19T06:16:23.419Z,100654.20
2022-12-19T06:18:51.354Z,100659.60
2022-12-19T06:21:23.767Z,100652.80
2022-12-19T06:23:51.598Z,100652.80
2022-12-19T06:26:22.594Z,100652.00
2022-12-19T06:28:52.694Z,100661.20
2022-12-19T06:31:23.517Z,100663.00
2022-12-19T06:33:54.609Z,100661.20
2022-12-19T06:36:25.981Z,100659.20
2022-12-19T06:38:57.867Z,100660.00
2022-12-19T06:41:45.954Z,100658.20
2022-12-19T06:44:17.367Z,100661.80
2022-12-19T06:46:45.200Z,100660.20
2022-12-19T06:49:13.063Z,100652.20
2022-12-19T06:51:41.360Z,100650.00
2022-12-19T06:54:11.898Z,100648.60
2022-12-19T06:56:42.547Z,100650.40
2022-12-19T06:59:16.570Z,100649.60
2022-12-19T07:02:16.861Z,100651.20
2022-12-19T07:04:55.354Z,100654.60
2022-12-19T07:07:23.158Z,100653.40
2022-12-19T07:09:50.950Z,100656.20
2022-12-19T07:12:18.627Z,100659.40
2022-12-19T07:14:51.682Z,100654.60
2022-12-19T07:17:24.088Z,100662.60
2022-12-19T07:19:56.122Z,100657.00
2022-12-19T07:22:29.507Z,100661.80
2022-12-19T07:24:58.197Z,100676.00
2022-12-19T07:27:35.259Z,100671.40
2022-12-19T07:30:06.471Z,100660.60
2022-12-19T07:32:34.253Z,100658.80
2022-12-19T07:35:02.660Z,100662.60
2022-12-19T07:37:30.317Z,100664.80
2022-12-19T07:39:58.081Z,100665.60
2022-12-19T07:42:29.403Z,100662.40
2022-12-19T07:45:01.455Z,100642.20
2022-12-19T07:47:29.196Z,100643.00
2022-12-19T07:49:56.980Z,100645.00
2022-12-19T07:52:24.895Z,100653.20
2022-12-19T07:54:52.646Z,100657.00
2022-12-19T07:57:20.554Z,100648.00
2022-12-19T07:59:48.268Z,100641.80
2022-12-19T08:02:16.137Z,100646.60
2022-12-19T08:04:43.949Z,100647.40
2022-12-19T08:07:11.655Z,100637.00
2022-12-19T08:09:39.455Z,100639.60
2022-12-19T08:12:07.469Z,100634.20
2022-12-19T08:14:35.232Z,100630.20
2022-12-19T08:19:50.939Z,100643.00
2022-12-19T08:22:18.980Z,100642.00
2022-12-19T08:24:46.654Z,100643.40
2022-12-19T08:27:17.008Z,100629.20
2022-12-19T08:29:44.705Z,100624.20
2022-12-19T08:32:17.059Z,100623.00
2022-12-19T08:34:48.623Z,100614.60
2022-12-19T08:37:17.188Z,100608.00
2022-12-19T08:39:45.060Z,100615.60
2022-12-19T08:42:12.848Z,100618.20
2022-12-19T08:44:40.808Z,100602.80
2022-12-19T08:47:09.663Z,100605.60
2022-12-19T08:49:37.401Z,100603.80
2022-12-19T08:52:05.087Z,100611.00
2022-12-19T08:54:32.712Z,100612.00
2022-12-19T08:57:00.408Z,100604.80
2022-12-19T08:59:31.479Z,100597.20
2022-12-19T09:02:01.837Z,100595.60
2022-12-19T09:05:31.797Z,100597.00
2022-12-19T09:07:18.537Z,100592.80
2022-12-19T09:09:46.463Z,100592.40
2022-12-19T09:12:16.596Z,100599.40
2022-12-19T09:14:44.521Z,100601.00
2022-12-19T09:17:12.404Z,100591.00
2022-12-19T09:19:40.298Z,100581.80
2022-12-19T09:22:10.803Z,100579.60
2022-12-19T09:24:38.524Z,100578.40
2022-12-19T09:27:06.286Z,100583.60
2022-12-19T09:29:35.713Z,100573.80
2022-12-19T09:32:03.982Z,100575.80
2022-12-19T09:34:38.055Z,100560.00
2022-12-19T09:37:15.425Z,100544.40
2022-12-19T09:39:47.045Z,100541.40
2022-12-19T09:42:41.147Z,100539.80
2022-12-19T09:45:31.908Z,100526.80
2022-12-19T09:48:02.511Z,100538.20
2022-12-19T09:51:16.480Z,100533.80
2022-12-19T09:54:07.548Z,100526.20
2022-12-19T09:56:46.415Z,100529.40
2022-12-19T09:59:39.721Z,100519.00
2022-12-19T10:02:31.499Z,100523.20
2022-12-19T10:05:37.617Z,100522.00
2022-12-19T10:08:44.793Z,100509.60
2022-12-19T10:12:43.675Z,100509.80
2022-12-19T10:15:37.628Z,100504.60
2022-12-19T10:18:17.680Z,100494.60
2022-12-19T10:21:04.135Z,100497.80
2022-12-19T10:24:20.187Z,100495.80
2022-12-19T10:27:01.624Z,100492.20
2022-12-19T10:30:03.883Z,100486.40
2022-12-19T10:32:31.481Z,100471.60
2022-12-19T10:35:00.250Z,100471.00
2022-12-19T10:37:43.908Z,100466.60
2022-12-19T10:40:36.580Z,100463.00
2022-12-19T10:43:32.879Z,100463.20
2022-12-19T10:46:20.198Z,100459.00
2022-12-19T10:48:52.688Z,100450.80
2022-12-19T10:51:28.704Z,100446.40
2022-12-19T10:54:01.395Z,100434.00
2022-12-19T10:56:37.089Z,100441.80
2022-12-19T10:59:18.051Z,100434.00
2022-12-19T11:01:54.215Z,100429.40
2022-12-19T11:04:36.735Z,100426.20
2022-12-19T11:07:07.017Z,100425.20
2022-12-19T11:09:40.929Z,100419.20
2022-12-19T11:14:49.930Z,100414.00
2022-12-19T11:18:07.111Z,100404.00
2022-12-19T11:27:06.625Z,100400.80
2022-12-19T11:29:40.931Z,100397.40
2022-12-19T11:30:35.947Z,100393.00
2022-12-19T11:30:48.370Z,100390.60
2022-12-19T11:32:47.565Z,100379.60
2022-12-19T11:35:36.956Z,100371.80
2022-12-19T11:38:08.350Z,100367.20
2022-12-19T11:40:53.060Z,100379.40
2022-12-19T11:43:45.111Z,100376.40
2022-12-19T11:46:37.771Z,100359.80
2022-12-19T11:49:27.064Z,100358.20
2022-12-19T11:52:01.016Z,100349.60
2022-12-19T11:55:17.140Z,100339.80
2022-12-19T11:57:46.645Z,100345.80
2022-12-19T12:00:20.960Z,100334.40
2022-12-19T12:03:26.739Z,100326.60
2022-12-19T12:05:56.556Z,100329.00
2022-12-19T12:11:08.754Z,100332.20
2022-12-19T12:17:53.217Z,100323.00
2022-12-19T12:28:47.925Z,100319.40
2022-12-19T12:31:04.009Z,100314.80
2022-12-19T12:31:11.128Z,100308.80
2022-12-19T12:31:54.111Z,100301.80
2022-12-19T12:31:57.030Z,100302.80
2022-12-19T12:35:38.341Z,100311.80
2022-12-19T12:42:04.640Z,100295.80
2022-12-19T12:44:44.871Z,100293.20
2022-12-19T12:47:27.588Z,100292.20
2022-12-19T12:50:07.195Z,100284.80
2022-12-19T12:52:41.097Z,100279.20
2022-12-19T12:55:28.935Z,100274.80
2022-12-19T12:57:57.655Z,100262.60
2022-12-19T13:00:32.109Z,100266.00
2022-12-19T13:03:11.498Z,100268.00
2022-12-19T13:06:07.670Z,100265.00
2022-12-19T13:08:39.069Z,100263.00
2022-12-19T13:11:34.224Z,100273.00
2022-12-19T13:14:02.580Z,100269.20
2022-12-19T13:16:45.536Z,100264.00
2022-12-19T13:19:28.027Z,100263.20
2022-12-19T13:22:09.036Z,100259.40
2022-12-19T13:24:55.668Z,100269.60
2022-12-19T13:27:23.903Z,100269.80
2022-12-19T13:30:00.935Z,100267.00
2022-12-19T13:32:54.830Z,100268.00
2022-12-19T13:36:38.624Z,100262.60
2022-12-19T13:39:48.574Z,100254.00
2022-12-19T13:41:59.374Z,100246.60
2022-12-19T13:44:28.151Z,100249.40
2022-12-19T13:46:56.527Z,100248.60
2022-12-19T13:49:34.547Z,100248.00
2022-12-19T13:52:05.132Z,100235.00
2022-12-19T13:54:51.920Z,100245.20
2022-12-19T13:57:30.175Z,100251.20
2022-12-19T14:00:03.939Z,100249.40
2022-12-19T14:02:44.327Z,100237.20
2022-12-19T14:05:34.000Z,100234.00
2022-12-19T14:08:23.593Z,100232.20
2022-12-19T14:11:46.510Z,100233.20
2022-12-19T14:14:22.091Z,100228.40
2022-12-19T14:17:05.310Z,100226.80
2022-12-19T14:19:40.357Z,100219.00
2022-12-19T14:22:26.334Z,100217.80
2022-12-19T14:25:32.107Z,100218.00
2022-12-19T14:28:24.463Z,100210.60
2022-12-19T14:31:03.145Z,100209.00
2022-12-19T14:34:04.247Z,100197.60
2022-12-19T14:36:32.827Z,100189.80
2022-12-19T14:39:24.087Z,100183.20
2022-12-19T14:42:11.167Z,100170.40
2022-12-19T14:51:51.773Z,100182.80
2022-12-19T14:54:01.160Z,100180.40
2022-12-19T14:54:07.108Z,100182.20
2022-12-19T14:54:42.091Z,100174.40
2022-12-19T14:59:31.191Z,100168.40
2022-12-19T15:02:32.463Z,100163.60
2022-12-19T15:05:14.856Z,100165.20
2022-12-19T15:07:47.847Z,100160.00
2022-12-19T15:11:07.819Z,100158.60
2022-12-19T15:14:57.024Z,100158.00
2022-12-19T15:16:29.772Z,100158.20
2022-12-19T15:19:00.602Z,100157.00
2022-12-19T15:21:30.900Z,100160.20
2022-12-19T15:23:58.805Z,100151.80
2022-12-19T15:26:30.645Z,100150.80
2022-12-19T15:28:58.866Z,100156.80
2022-12-19T15:31:36.270Z,100153.40
2022-12-19T15:34:37.958Z,100162.60
2022-12-19T15:37:15.109Z,100150.80
2022-12-19T15:39:44.549Z,100149.40
2022-12-19T15:42:26.118Z,100148.80
2022-12-19T15:44:56.571Z,100144.60
2022-12-19T15:47:34.035Z,100142.40
2022-12-19T15:50:15.456Z,100141.80
2022-12-19T15:52:43.175Z,100133.80
2022-12-19T15:55:17.210Z,100133.00
2022-12-19T15:57:51.611Z,100141.40
2022-12-19T16:00:27.765Z,100141.60
2022-12-19T16:03:23.710Z,100136.60
2022-12-19T16:05:45.941Z,100139.40
2022-12-19T16:08:18.273Z,100139.80
2022-12-19T16:10:55.891Z,100135.80
2022-12-19T16:13:33.971Z,100131.20
2022-12-19T16:16:07.949Z,100131.60
2022-12-19T16:18:40.787Z,100127.60
2022-12-19T16:21:31.643Z,100132.00
2022-12-19T16:24:01.262Z,100126.40
2022-12-19T16:26:37.187Z,100118.20
2022-12-19T16:29:06.623Z,100120.00
2022-12-19T16:31:34.646Z,100115.00
2022-12-19T16:34:03.886Z,100105.60
2022-12-19T16:36:31.806Z,100100.80
2022-12-19T16:38:59.521Z,100096.40
2022-12-19T16:41:28.453Z,100097.80
2022-12-19T16:43:57.027Z,100085.00
2022-12-19T16:46:30.731Z,100084.40
2022-12-19T16:48:59.640Z,100091.20
2022-12-19T16:51:28.172Z,100091.20
2022-12-19T16:54:00.590Z,100085.00
2022-12-19T16:56:40.724Z,100085.60
2022-12-19T16:59:22.418Z,100084.20
2022-12-19T17:01:51.138Z,100079.60
2022-12-19T17:04:23.398Z,100086.00
2022-12-19T17:06:54.128Z,100083.40
2022-12-19T17:09:24.416Z,100079.40
2022-12-19T17:11:58.075Z,100084.60
2022-12-19T17:14:31.692Z,100079.40
2022-12-19T17:17:00.249Z,100085.00
2022-12-19T17:19:41.653Z,100080.80
2022-12-19T17:22:21.388Z,100084.00
2022-12-19T17:24:49.528Z,100084.80
2022-12-19T17:27:19.143Z,100083.40
2022-12-19T17:29:47.343Z,100077.00
2022-12-19T17:32:23.668Z,100075.20
2022-12-19T17:34:52.786Z,100078.00
2022-12-19T17:37:20.993Z,100073.60
2022-12-19T17:39:48.985Z,100079.80
2022-12-19T17:42:23.760Z,100069.60
2022-12-19T17:44:51.922Z,100074.00
2022-12-19T17:47:21.017Z,100076.40
2022-12-19T17:49:49.538Z,100069.80
2022-12-19T17:52:19.981Z,100069.80
2022-12-19T17:54:47.684Z,100069.20
2022-12-19T17:57:17.729Z,100060.00
2022-12-19T17:59:48.504Z,100060.40
2022-12-19T18:02:24.118Z,100069.20
2022-12-19T18:04:53.218Z,100065.40
2022-12-19T18:07:21.202Z,100060.00
2022-12-19T18:09:48.983Z,100060.00
2022-12-19T18:12:16.735Z,100058.00
2022-12-19T18:14:44.424Z,100056.60
2022-12-19T18:17:15.997Z,100045.20
2022-12-19T18:19:43.752Z,100050.20
2022-12-19T18:22:14.982Z,100045.60
2022-12-19T18:24:42.801Z,100040.00
2022-12-19T18:27:10.593Z,100036.20
2022-12-19T18:29:38.308Z,100032.20
2022-12-19T18:32:06.338Z,100028.40
2022-12-19T18:34:35.565Z,100021.20
2022-12-19T18:37:05.497Z,100028.20
2022-12-19T18:39:34.222Z,100023.80
2022-12-19T18:42:17.997Z,100021.20
2022-12-19T18:44:45.721Z,100012.80
2022-12-19T18:47:25.488Z,100019.40
2022-12-19T18:49:53.219Z,100011.80
2022-12-19T18:52:20.953Z,100015.40
2022-12-19T18:54:48.588Z,100015.20
2022-12-19T18:57:16.308Z,100010.20
2022-12-19T18:59:43.929Z,100014.80
2022-12-19T19:02:27.473Z,100011.00
2022-12-19T19:04:56.180Z,100006.20
2022-12-19T19:07:23.925Z,99999.80
2022-12-19T19:09:51.838Z,100011.40
2022-12-19T19:12:19.453Z,100008.60
2022-12-19T19:14:47.085Z,100001.80
2022-12-19T19:17:28.149Z,100002.60
2022-12-19T19:19:55.983Z,99998.80
2022-12-19T19:22:24.867Z,100004.40
2022-12-19T19:24:52.551Z,99996.60
2022-12-19T19:27:20.187Z,99992.60
2022-12-19T19:29:47.893Z,99997.40
2022-12-19T19:32:15.867Z,100007.40
2022-12-19T19:34:45.147Z,100000.80
2022-12-19T19:37:15.324Z,99990.20
2022-12-19T19:39:43.051Z,99988.60
2022-12-19T19:42:10.892Z,99987.60
2022-12-19T19:44:38.665Z,99995.40
2022-12-19T19:47:06.465Z,99990.60
2022-12-19T19:49:34.257Z,99995.40
2022-12-19T19:52:03.073Z,99987.00
2022-12-19T19:54:32.179Z,99987.40
2022-12-19T19:56:59.772Z,99980.20
2022-12-19T19:59:31.332Z,99979.20
2022-12-19T20:01:59.743Z,99985.00
2022-12-19T20:04:27.935Z,99981.20
2022-12-19T20:06:55.719Z,99971.60
2022-12-19T20:09:23.414Z,99967.00
2022-12-19T20:11:51.067Z,99967.40
2022-12-19T20:14:18.747Z,99970.40
2022-12-19T20:16:47.369Z,99967.40
2022-12-19T20:19:15.789Z,99973.60
2022-12-19T20:21:43.812Z,99959.80
2022-12-19T20:24:12.829Z,99960.00
2022-12-19T20:26:40.795Z,99960.00
2022-12-19T20:29:11.427Z,99956.00
2022-12-19T20:31:39.644Z,99954.80
2022-12-19T20:34:07.570Z,99953.20
2022-12-19T20:36:35.685Z,99959.40
2022-12-19T20:39:04.059Z,99958.40
2022-12-19T20:41:31.925Z,99952.00
2022-12-19T20:44:00.039Z,99956.80
2022-12-19T20:46:28.299Z,99937.40
2022-12-19T20:48:57.284Z,99944.00
2022-12-19T20:51:25.060Z,99942.00
2022-12-19T20:53:54.657Z,99930.80
2022-12-19T20:56:26.071Z,99935.80
2022-12-19T20:58:53.949Z,99933.00
2022-12-19T21:01:24.757Z,99939.20
2022-12-19T21:03:53.272Z,99944.40
2022-12-19T21:06:22.680Z,99948.60
2022-12-19T21:08:50.456Z,99938.80
2022-12-19T21:11:18.137Z,99936.60
2022-12-19T21:13:45.819Z,99936.00
2022-12-19T21:16:19.703Z,99943.20
2022-12-19T21:18:50.051Z,99944.20
2022-12-19T21:21:23.041Z,99937.80
2022-12-19T21:23:51.956Z,99934.20
2022-12-19T21:26:21.400Z,99936.60
2022-12-19T21:28:49.498Z,99936.00
2022-12-19T21:31:25.269Z,99942.20
2022-12-19T21:33:58.865Z,99936.20
2022-12-19T21:36:28.908Z,99936.80
2022-12-19T21:39:00.433Z,99936.60
2022-12-19T21:41:29.859Z,99937.80
2022-12-19T21:44:00.350Z,99931.00
2022-12-19T21:46:35.361Z,99936.60
2022-12-19T21:49:03.241Z,99936.00
2022-12-19T21:51:32.156Z,99932.00
2022-12-19T21:54:03.409Z,99931.40
2022-12-19T21:56:38.926Z,99925.40
2022-12-19T21:59:15.733Z,99920.20
2022-12-19T22:01:45.329Z,99906.60
2022-12-19T22:04:19.807Z,99907.00
2022-12-19T22:06:49.116Z,99905.60
2022-12-19T22:09:22.490Z,99906.00
2022-12-19T22:11:50.644Z,99899.20
2022-12-19T22:14:18.388Z,99904.00
2022-12-19T22:16:46.130Z,99902.80
2022-12-19T22:19:17.959Z,99903.60
2022-12-19T22:21:47.172Z,99914.00
2022-12-19T22:24:17.260Z,99912.60
2022-12-19T22:26:45.058Z,99905.40
2022-12-19T22:29:16.666Z,99899.80
2022-12-19T22:31:45.161Z,99905.20
2022-12-19T22:34:18.167Z,99908.60
2022-12-19T22:36:47.525Z,99893.40
2022-12-19T22:39:19.017Z,99891.00
2022-12-19T22:41:47.147Z,99888.60
2022-12-19T22:44:22.354Z,99892.80
2022-12-19T22:46:51.661Z,99891.20
2022-12-19T22:49:19.893Z,99892.40
2022-12-19T22:51:47.858Z,99881.40
2022-12-19T22:54:16.024Z,99889.00
2022-12-19T22:56:43.732Z,99883.00
2022-12-19T22:59:12.625Z,99880.00
2022-12-19T23:01:43.527Z,99885.40
2022-12-19T23:04:15.767Z,99881.80
2022-12-19T23:06:44.301Z,99881.60
2022-12-19T23:09:16.390Z,99884.60
2022-12-19T23:11:48.860Z,99871.60
2022-12-19T23:14:18.890Z,99873.60
2022-12-19T23:16:48.055Z,99878.00
2022-12-19T23:19:17.035Z,99872.00
2022-12-19T23:21:45.682Z,99870.20
2022-12-19T23:24:13.949Z,99878.00
2022-12-19T23:26:42.027Z,99869.40
2022-12-19T23:29:14.294Z,99874.80
2022-12-19T23:31:45.839Z,99869.00
2022-12-19T23:34:15.680Z,99865.40
2022-12-19T23:39:32.267Z,99871.40
2022-12-19T23:41:59.989Z,99866.60
2022-12-19T23:44:27.953Z,99877.60
2022-12-19T23:47:02.377Z,99870.20
2022-12-19T23:49:33.334Z,99869.00
2022-12-19T23:52:01.305Z,99880.20
2022-12-19T23:54:29.181Z,99870.60
2022-12-19T23:56:56.869Z,99880.40
2022-12-19T23:59:24.568Z,99878.20
